sensor_id;sensor_type;location;lat;lon;timestamp;temperature;humidity
53748;DHT22;39655;53.210;5.768;2023-08-12T00:00:19;18.90;89.80
53748;DHT22;39655;53.210;5.768;2023-08-12T00:02:45;18.90;90.10
53748;DHT22;39655;53.210;5.768;2023-08-12T00:05:12;18.90;90.50
53748;DHT22;39655;53.210;5.768;2023-08-12T00:07:41;18.80;90.40
53748;DHT22;39655;53.210;5.768;2023-08-12T00:10:07;18.80;90.20
53748;DHT22;39655;53.210;5.768;2023-08-12T00:12:36;18.80;90.40
53748;DHT22;39655;53.210;5.768;2023-08-12T00:15:04;18.80;90.40
53748;DHT22;39655;53.210;5.768;2023-08-12T00:17:32;18.80;90.40
53748;DHT22;39655;53.210;5.768;2023-08-12T00:19:57;18.90;90.80
53748;DHT22;39655;53.210;5.768;2023-08-12T00:22:23;18.90;90.80
53748;DHT22;39655;53.210;5.768;2023-08-12T00:24:49;19.00;90.70
53748;DHT22;39655;53.210;5.768;2023-08-12T00:27:14;19.00;90.80
53748;DHT22;39655;53.210;5.768;2023-08-12T00:29:40;19.00;90.70
53748;DHT22;39655;53.210;5.768;2023-08-12T00:32:07;19.10;90.90
53748;DHT22;39655;53.210;5.768;2023-08-12T00:34:33;19.10;90.70
53748;DHT22;39655;53.210;5.768;2023-08-12T00:36:59;19.10;90.50
53748;DHT22;39655;53.210;5.768;2023-08-12T00:39:25;19.10;90.60
53748;DHT22;39655;53.210;5.768;2023-08-12T00:41:50;19.10;90.70
53748;DHT22;39655;53.210;5.768;2023-08-12T00:44:16;19.10;90.70
53748;DHT22;39655;53.210;5.768;2023-08-12T00:46:42;19.10;90.50
53748;DHT22;39655;53.210;5.768;2023-08-12T00:49:10;19.00;90.40
53748;DHT22;39655;53.210;5.768;2023-08-12T00:51:39;18.90;90.50
53748;DHT22;39655;53.210;5.768;2023-08-12T00:54:08;18.80;90.60
53748;DHT22;39655;53.210;5.768;2023-08-12T00:56:35;18.70;90.70
53748;DHT22;39655;53.210;5.768;2023-08-12T00:59:02;18.70;90.80
53748;DHT22;39655;53.210;5.768;2023-08-12T01:01:30;18.60;91.00
53748;DHT22;39655;53.210;5.768;2023-08-12T01:03:56;18.60;91.00
53748;DHT22;39655;53.210;5.768;2023-08-12T01:06:23;18.60;91.10
53748;DHT22;39655;53.210;5.768;2023-08-12T01:08:49;18.50;91.00
53748;DHT22;39655;53.210;5.768;2023-08-12T01:16:50;18.40;91.40
53748;DHT22;39655;53.210;5.768;2023-08-12T01:19:49;18.40;91.20
53748;DHT22;39655;53.210;5.768;2023-08-12T01:22:16;18.40;91.50
53748;DHT22;39655;53.210;5.768;2023-08-12T01:24:44;18.40;91.50
53748;DHT22;39655;53.210;5.768;2023-08-12T01:27:12;18.40;91.60
53748;DHT22;39655;53.210;5.768;2023-08-12T01:29:40;18.40;91.70
53748;DHT22;39655;53.210;5.768;2023-08-12T01:32:25;18.40;91.70
53748;DHT22;39655;53.210;5.768;2023-08-12T01:35:26;18.40;91.50
53748;DHT22;39655;53.210;5.768;2023-08-12T01:37:51;18.30;91.60
53748;DHT22;39655;53.210;5.768;2023-08-12T01:40:19;18.40;91.50
53748;DHT22;39655;53.210;5.768;2023-08-12T01:42:45;18.40;91.70
53748;DHT22;39655;53.210;5.768;2023-08-12T01:45:11;18.40;91.70
53748;DHT22;39655;53.210;5.768;2023-08-12T01:47:37;18.40;91.70
53748;DHT22;39655;53.210;5.768;2023-08-12T01:50:03;18.40;91.80
53748;DHT22;39655;53.210;5.768;2023-08-12T01:52:28;18.40;92.00
53748;DHT22;39655;53.210;5.768;2023-08-12T01:54:54;18.50;91.90
53748;DHT22;39655;53.210;5.768;2023-08-12T01:57:20;18.60;92.00
53748;DHT22;39655;53.210;5.768;2023-08-12T01:59:46;18.60;91.90
53748;DHT22;39655;53.210;5.768;2023-08-12T02:02:12;18.60;91.90
53748;DHT22;39655;53.210;5.768;2023-08-12T02:04:39;18.60;91.90
53748;DHT22;39655;53.210;5.768;2023-08-12T02:07:05;18.70;91.90
53748;DHT22;39655;53.210;5.768;2023-08-12T02:09:31;18.70;91.80
53748;DHT22;39655;53.210;5.768;2023-08-12T02:11:57;18.70;91.70
53748;DHT22;39655;53.210;5.768;2023-08-12T02:14:22;18.70;91.70
53748;DHT22;39655;53.210;5.768;2023-08-12T02:16:48;18.70;91.90
53748;DHT22;39655;53.210;5.768;2023-08-12T02:19:14;18.70;91.70
53748;DHT22;39655;53.210;5.768;2023-08-12T02:21:40;18.80;91.80
53748;DHT22;39655;53.210;5.768;2023-08-12T02:24:06;18.80;91.80
53748;DHT22;39655;53.210;5.768;2023-08-12T02:26:33;18.80;91.80
53748;DHT22;39655;53.210;5.768;2023-08-12T02:28:58;18.80;91.80
53748;DHT22;39655;53.210;5.768;2023-08-12T02:31:24;18.90;91.70
53748;DHT22;39655;53.210;5.768;2023-08-12T02:33:50;18.90;91.60
53748;DHT22;39655;53.210;5.768;2023-08-12T02:36:16;18.90;91.80
53748;DHT22;39655;53.210;5.768;2023-08-12T02:38:42;18.90;92.00
53748;DHT22;39655;53.210;5.768;2023-08-12T02:41:07;19.00;91.80
53748;DHT22;39655;53.210;5.768;2023-08-12T02:43:33;19.00;91.70
53748;DHT22;39655;53.210;5.768;2023-08-12T02:45:58;19.00;91.70
53748;DHT22;39655;53.210;5.768;2023-08-12T02:48:24;19.00;91.60
53748;DHT22;39655;53.210;5.768;2023-08-12T02:50:50;19.00;91.80
53748;DHT22;39655;53.210;5.768;2023-08-12T02:53:16;19.00;91.80
53748;DHT22;39655;53.210;5.768;2023-08-12T02:55:42;19.00;91.60
53748;DHT22;39655;53.210;5.768;2023-08-12T02:58:08;19.00;91.60
53748;DHT22;39655;53.210;5.768;2023-08-12T03:00:33;19.00;91.60
53748;DHT22;39655;53.210;5.768;2023-08-12T03:02:59;19.00;91.50
53748;DHT22;39655;53.210;5.768;2023-08-12T03:05:25;19.10;91.50
53748;DHT22;39655;53.210;5.768;2023-08-12T03:07:50;19.10;91.50
53748;DHT22;39655;53.210;5.768;2023-08-12T03:10:19;19.00;91.40
53748;DHT22;39655;53.210;5.768;2023-08-12T03:12:45;19.10;91.50
53748;DHT22;39655;53.210;5.768;2023-08-12T03:15:11;19.10;91.50
53748;DHT22;39655;53.210;5.768;2023-08-12T03:17:37;19.10;91.30
53748;DHT22;39655;53.210;5.768;2023-08-12T03:20:06;19.10;91.40
53748;DHT22;39655;53.210;5.768;2023-08-12T03:22:37;19.10;91.30
53748;DHT22;39655;53.210;5.768;2023-08-12T03:25:04;19.10;91.30
53748;DHT22;39655;53.210;5.768;2023-08-12T03:27:30;19.10;91.40
53748;DHT22;39655;53.210;5.768;2023-08-12T03:29:56;19.10;91.30
53748;DHT22;39655;53.210;5.768;2023-08-12T03:32:21;19.10;91.30
53748;DHT22;39655;53.210;5.768;2023-08-12T03:34:47;19.10;91.30
53748;DHT22;39655;53.210;5.768;2023-08-12T03:37:13;19.10;91.40
53748;DHT22;39655;53.210;5.768;2023-08-12T03:39:38;19.10;91.40
53748;DHT22;39655;53.210;5.768;2023-08-12T03:42:04;19.10;91.20
53748;DHT22;39655;53.210;5.768;2023-08-12T03:44:30;19.10;91.30
53748;DHT22;39655;53.210;5.768;2023-08-12T03:46:55;19.10;91.30
53748;DHT22;39655;53.210;5.768;2023-08-12T03:49:21;19.10;91.20
53748;DHT22;39655;53.210;5.768;2023-08-12T03:51:47;19.10;91.40
53748;DHT22;39655;53.210;5.768;2023-08-12T03:54:12;19.10;91.40
53748;DHT22;39655;53.210;5.768;2023-08-12T03:56:38;19.10;91.50
53748;DHT22;39655;53.210;5.768;2023-08-12T03:59:04;19.10;91.50
53748;DHT22;39655;53.210;5.768;2023-08-12T04:01:29;19.10;91.40
53748;DHT22;39655;53.210;5.768;2023-08-12T04:03:55;19.10;91.30
53748;DHT22;39655;53.210;5.768;2023-08-12T04:06:21;19.10;91.50
53748;DHT22;39655;53.210;5.768;2023-08-12T04:08:46;19.10;91.50
53748;DHT22;39655;53.210;5.768;2023-08-12T04:11:12;19.10;91.50
53748;DHT22;39655;53.210;5.768;2023-08-12T04:13:38;19.10;91.40
53748;DHT22;39655;53.210;5.768;2023-08-12T04:16:03;19.10;91.50
53748;DHT22;39655;53.210;5.768;2023-08-12T04:18:29;19.10;91.50
53748;DHT22;39655;53.210;5.768;2023-08-12T04:20:55;19.10;91.50
53748;DHT22;39655;53.210;5.768;2023-08-12T04:23:20;19.10;91.60
53748;DHT22;39655;53.210;5.768;2023-08-12T04:25:47;19.10;91.70
53748;DHT22;39655;53.210;5.768;2023-08-12T04:28:14;19.10;91.50
53748;DHT22;39655;53.210;5.768;2023-08-12T04:30:42;19.10;91.60
53748;DHT22;39655;53.210;5.768;2023-08-12T04:33:07;19.10;91.50
53748;DHT22;39655;53.210;5.768;2023-08-12T04:35:33;19.10;91.60
53748;DHT22;39655;53.210;5.768;2023-08-12T04:37:59;19.10;91.60
53748;DHT22;39655;53.210;5.768;2023-08-12T04:40:24;19.10;91.60
53748;DHT22;39655;53.210;5.768;2023-08-12T04:42:50;19.10;91.80
53748;DHT22;39655;53.210;5.768;2023-08-12T04:45:16;19.10;91.70
53748;DHT22;39655;53.210;5.768;2023-08-12T04:47:42;19.10;91.70
53748;DHT22;39655;53.210;5.768;2023-08-12T04:50:08;19.20;91.80
53748;DHT22;39655;53.210;5.768;2023-08-12T04:52:34;19.20;91.80
53748;DHT22;39655;53.210;5.768;2023-08-12T04:54:59;19.30;91.90
53748;DHT22;39655;53.210;5.768;2023-08-12T04:57:25;19.30;91.90
53748;DHT22;39655;53.210;5.768;2023-08-12T04:59:51;19.40;91.90
53748;DHT22;39655;53.210;5.768;2023-08-12T05:02:16;19.50;91.80
53748;DHT22;39655;53.210;5.768;2023-08-12T05:04:48;19.50;91.70
53748;DHT22;39655;53.210;5.768;2023-08-12T05:07:15;19.60;91.70
53748;DHT22;39655;53.210;5.768;2023-08-12T05:09:41;19.60;91.70
53748;DHT22;39655;53.210;5.768;2023-08-12T05:12:09;19.70;91.50
53748;DHT22;39655;53.210;5.768;2023-08-12T05:14:35;19.70;91.40
53748;DHT22;39655;53.210;5.768;2023-08-12T05:17:01;19.80;91.40
53748;DHT22;39655;53.210;5.768;2023-08-12T05:19:26;19.80;91.30
53748;DHT22;39655;53.210;5.768;2023-08-12T05:21:52;19.80;91.20
53748;DHT22;39655;53.210;5.768;2023-08-12T05:24:18;19.80;91.20
53748;DHT22;39655;53.210;5.768;2023-08-12T05:26:43;19.80;91.20
53748;DHT22;39655;53.210;5.768;2023-08-12T05:29:09;19.80;91.20
53748;DHT22;39655;53.210;5.768;2023-08-12T05:31:35;19.80;91.20
53748;DHT22;39655;53.210;5.768;2023-08-12T05:34:00;19.80;91.20
53748;DHT22;39655;53.210;5.768;2023-08-12T05:36:26;19.80;91.20
53748;DHT22;39655;53.210;5.768;2023-08-12T05:38:52;19.90;91.10
53748;DHT22;39655;53.210;5.768;2023-08-12T05:41:17;19.90;91.10
53748;DHT22;39655;53.210;5.768;2023-08-12T05:43:43;19.90;91.10
53748;DHT22;39655;53.210;5.768;2023-08-12T05:46:09;19.90;91.00
53748;DHT22;39655;53.210;5.768;2023-08-12T05:48:34;19.90;91.10
53748;DHT22;39655;53.210;5.768;2023-08-12T05:51:00;19.90;91.10
53748;DHT22;39655;53.210;5.768;2023-08-12T05:53:26;19.90;91.10
53748;DHT22;39655;53.210;5.768;2023-08-12T05:55:51;20.00;91.00
53748;DHT22;39655;53.210;5.768;2023-08-12T05:58:17;20.00;91.00
53748;DHT22;39655;53.210;5.768;2023-08-12T06:00:43;20.00;91.00
53748;DHT22;39655;53.210;5.768;2023-08-12T06:03:12;20.00;91.00
53748;DHT22;39655;53.210;5.768;2023-08-12T06:05:39;20.00;91.10
53748;DHT22;39655;53.210;5.768;2023-08-12T06:08:05;20.00;91.00
53748;DHT22;39655;53.210;5.768;2023-08-12T06:10:31;20.00;91.00
53748;DHT22;39655;53.210;5.768;2023-08-12T06:12:56;20.00;91.10
53748;DHT22;39655;53.210;5.768;2023-08-12T06:15:22;20.10;91.00
53748;DHT22;39655;53.210;5.768;2023-08-12T06:17:48;20.00;91.10
53748;DHT22;39655;53.210;5.768;2023-08-12T06:20:14;19.90;91.00
53748;DHT22;39655;53.210;5.768;2023-08-12T06:22:39;19.90;91.00
53748;DHT22;39655;53.210;5.768;2023-08-12T06:25:05;19.90;91.10
53748;DHT22;39655;53.210;5.768;2023-08-12T06:27:32;19.90;91.10
53748;DHT22;39655;53.210;5.768;2023-08-12T06:29:58;19.90;91.20
53748;DHT22;39655;53.210;5.768;2023-08-12T06:32:23;19.90;91.10
53748;DHT22;39655;53.210;5.768;2023-08-12T06:34:49;19.90;91.20
53748;DHT22;39655;53.210;5.768;2023-08-12T06:37:15;20.00;91.30
53748;DHT22;39655;53.210;5.768;2023-08-12T06:39:40;20.00;91.40
53748;DHT22;39655;53.210;5.768;2023-08-12T06:42:06;20.00;91.40
53748;DHT22;39655;53.210;5.768;2023-08-12T06:44:32;20.10;91.40
53748;DHT22;39655;53.210;5.768;2023-08-12T06:46:57;20.10;91.40
53748;DHT22;39655;53.210;5.768;2023-08-12T06:49:23;20.10;91.40
53748;DHT22;39655;53.210;5.768;2023-08-12T06:51:48;20.20;91.40
53748;DHT22;39655;53.210;5.768;2023-08-12T06:54:14;20.20;91.30
53748;DHT22;39655;53.210;5.768;2023-08-12T06:56:40;20.30;91.20
53748;DHT22;39655;53.210;5.768;2023-08-12T06:59:05;20.30;91.20
53748;DHT22;39655;53.210;5.768;2023-08-12T07:01:31;20.40;91.20
53748;DHT22;39655;53.210;5.768;2023-08-12T07:03:57;20.40;91.20
53748;DHT22;39655;53.210;5.768;2023-08-12T07:06:22;20.50;91.10
53748;DHT22;39655;53.210;5.768;2023-08-12T07:08:48;20.50;91.10
53748;DHT22;39655;53.210;5.768;2023-08-12T07:11:14;20.50;91.00
53748;DHT22;39655;53.210;5.768;2023-08-12T07:13:39;20.60;91.00
53748;DHT22;39655;53.210;5.768;2023-08-12T07:16:05;20.60;91.00
53748;DHT22;39655;53.210;5.768;2023-08-12T07:18:31;20.60;90.80
53748;DHT22;39655;53.210;5.768;2023-08-12T07:20:56;20.60;90.70
53748;DHT22;39655;53.210;5.768;2023-08-12T07:23:24;20.60;90.70
53748;DHT22;39655;53.210;5.768;2023-08-12T07:25:49;20.60;90.70
53748;DHT22;39655;53.210;5.768;2023-08-12T07:28:15;20.60;90.70
53748;DHT22;39655;53.210;5.768;2023-08-12T07:30:41;20.60;90.70
53748;DHT22;39655;53.210;5.768;2023-08-12T07:33:07;20.60;90.80
53748;DHT22;39655;53.210;5.768;2023-08-12T07:35:33;20.50;90.80
53748;DHT22;39655;53.210;5.768;2023-08-12T07:37:58;20.50;90.80
53748;DHT22;39655;53.210;5.768;2023-08-12T07:40:24;20.40;90.70
53748;DHT22;39655;53.210;5.768;2023-08-12T07:42:50;20.40;90.90
53748;DHT22;39655;53.210;5.768;2023-08-12T07:45:18;20.40;91.00
53748;DHT22;39655;53.210;5.768;2023-08-12T07:47:43;20.30;91.20
53748;DHT22;39655;53.210;5.768;2023-08-12T07:50:09;20.30;91.30
53748;DHT22;39655;53.210;5.768;2023-08-12T07:52:36;20.20;91.20
53748;DHT22;39655;53.210;5.768;2023-08-12T07:55:02;20.20;91.30
53748;DHT22;39655;53.210;5.768;2023-08-12T07:57:27;20.10;91.60
53748;DHT22;39655;53.210;5.768;2023-08-12T07:59:53;20.10;91.60
53748;DHT22;39655;53.210;5.768;2023-08-12T08:02:19;20.00;91.90
53748;DHT22;39655;53.210;5.768;2023-08-12T08:04:44;20.00;92.00
53748;DHT22;39655;53.210;5.768;2023-08-12T08:07:14;20.00;92.30
53748;DHT22;39655;53.210;5.768;2023-08-12T08:09:40;19.90;92.20
53748;DHT22;39655;53.210;5.768;2023-08-12T08:12:07;19.90;92.30
53748;DHT22;39655;53.210;5.768;2023-08-12T08:14:33;19.90;92.30
53748;DHT22;39655;53.210;5.768;2023-08-12T08:16:58;19.90;92.40
53748;DHT22;39655;53.210;5.768;2023-08-12T08:19:24;19.80;92.60
53748;DHT22;39655;53.210;5.768;2023-08-12T08:21:49;19.90;92.60
53748;DHT22;39655;53.210;5.768;2023-08-12T08:24:15;19.90;92.70
53748;DHT22;39655;53.210;5.768;2023-08-12T08:26:41;19.80;92.70
53748;DHT22;39655;53.210;5.768;2023-08-12T08:29:09;19.80;92.90
53748;DHT22;39655;53.210;5.768;2023-08-12T08:31:35;19.90;93.00
53748;DHT22;39655;53.210;5.768;2023-08-12T08:34:00;19.80;92.90
53748;DHT22;39655;53.210;5.768;2023-08-12T08:36:26;19.90;92.90
53748;DHT22;39655;53.210;5.768;2023-08-12T08:38:52;19.80;92.90
53748;DHT22;39655;53.210;5.768;2023-08-12T08:41:17;19.80;93.00
53748;DHT22;39655;53.210;5.768;2023-08-12T08:43:44;19.80;93.20
53748;DHT22;39655;53.210;5.768;2023-08-12T08:46:15;19.80;93.20
53748;DHT22;39655;53.210;5.768;2023-08-12T08:48:44;19.80;93.20
53748;DHT22;39655;53.210;5.768;2023-08-12T08:51:12;19.70;93.30
53748;DHT22;39655;53.210;5.768;2023-08-12T08:53:39;19.70;93.30
53748;DHT22;39655;53.210;5.768;2023-08-12T08:56:24;19.70;93.60
53748;DHT22;39655;53.210;5.768;2023-08-12T08:58:55;19.80;93.60
53748;DHT22;39655;53.210;5.768;2023-08-12T09:09:29;20.00;93.70
53748;DHT22;39655;53.210;5.768;2023-08-12T09:13:05;20.00;93.80
53748;DHT22;39655;53.210;5.768;2023-08-12T09:15:57;19.90;93.90
53748;DHT22;39655;53.210;5.768;2023-08-12T09:18:40;19.90;94.00
53748;DHT22;39655;53.210;5.768;2023-08-12T09:21:08;19.90;94.00
53748;DHT22;39655;53.210;5.768;2023-08-12T09:23:38;19.80;94.00
53748;DHT22;39655;53.210;5.768;2023-08-12T09:26:18;19.80;94.10
53748;DHT22;39655;53.210;5.768;2023-08-12T09:28:45;19.80;94.20
53748;DHT22;39655;53.210;5.768;2023-08-12T09:31:27;19.80;94.40
53748;DHT22;39655;53.210;5.768;2023-08-12T09:33:57;19.70;94.40
53748;DHT22;39655;53.210;5.768;2023-08-12T09:36:41;19.70;94.50
53748;DHT22;39655;53.210;5.768;2023-08-12T09:39:07;19.70;94.60
53748;DHT22;39655;53.210;5.768;2023-08-12T09:41:56;19.30;94.60
53748;DHT22;39655;53.210;5.768;2023-08-12T09:44:23;19.10;94.60
53748;DHT22;39655;53.210;5.768;2023-08-12T09:47:15;18.90;94.70
53748;DHT22;39655;53.210;5.768;2023-08-12T09:54:07;18.70;95.00
53748;DHT22;39655;53.210;5.768;2023-08-12T09:56:43;18.50;95.10
53748;DHT22;39655;53.210;5.768;2023-08-12T09:59:19;18.30;95.20
53748;DHT22;39655;53.210;5.768;2023-08-12T10:01:51;18.20;95.20
53748;DHT22;39655;53.210;5.768;2023-08-12T10:04:34;18.10;95.00
53748;DHT22;39655;53.210;5.768;2023-08-12T10:07:25;17.90;95.10
53748;DHT22;39655;53.210;5.768;2023-08-12T10:09:54;17.90;95.40
53748;DHT22;39655;53.210;5.768;2023-08-12T10:12:34;18.00;95.80
53748;DHT22;39655;53.210;5.768;2023-08-12T10:15:20;17.90;95.50
53748;DHT22;39655;53.210;5.768;2023-08-12T10:17:47;17.70;95.50
53748;DHT22;39655;53.210;5.768;2023-08-12T10:21:12;17.70;95.50
53748;DHT22;39655;53.210;5.768;2023-08-12T10:24:08;17.70;95.70
53748;DHT22;39655;53.210;5.768;2023-08-12T10:26:53;17.90;96.00
53748;DHT22;39655;53.210;5.768;2023-08-12T10:29:56;18.10;96.00
53748;DHT22;39655;53.210;5.768;2023-08-12T10:32:31;18.20;96.30
53748;DHT22;39655;53.210;5.768;2023-08-12T10:35:03;18.10;96.10
53748;DHT22;39655;53.210;5.768;2023-08-12T10:37:35;18.20;96.30
53748;DHT22;39655;53.210;5.768;2023-08-12T10:40:20;18.20;96.20
53748;DHT22;39655;53.210;5.768;2023-08-12T10:42:50;18.20;96.40
53748;DHT22;39655;53.210;5.768;2023-08-12T10:45:18;18.10;96.30
53748;DHT22;39655;53.210;5.768;2023-08-12T10:48:16;18.20;96.50
53748;DHT22;39655;53.210;5.768;2023-08-12T10:50:45;18.10;96.50
53748;DHT22;39655;53.210;5.768;2023-08-12T10:53:50;18.00;96.30
53748;DHT22;39655;53.210;5.768;2023-08-12T10:56:19;18.10;96.70
53748;DHT22;39655;53.210;5.768;2023-08-12T11:06:12;18.00;96.70
53748;DHT22;39655;53.210;5.768;2023-08-12T11:09:06;17.90;96.60
53748;DHT22;39655;53.210;5.768;2023-08-12T11:11:41;17.90;96.60
53748;DHT22;39655;53.210;5.768;2023-08-12T11:14:19;18.10;96.80
53748;DHT22;39655;53.210;5.768;2023-08-12T11:20:04;18.30;96.90
53748;DHT22;39655;53.210;5.768;2023-08-12T11:22:35;18.40;96.90
53748;DHT22;39655;53.210;5.768;2023-08-12T11:25:06;18.50;96.80
53748;DHT22;39655;53.210;5.768;2023-08-12T11:28:00;18.50;96.70
53748;DHT22;39655;53.210;5.768;2023-08-12T11:30:28;18.40;96.50
53748;DHT22;39655;53.210;5.768;2023-08-12T11:32:55;18.40;96.50
53748;DHT22;39655;53.210;5.768;2023-08-12T11:35:22;18.40;96.20
53748;DHT22;39655;53.210;5.768;2023-08-12T11:37:55;18.40;96.10
53748;DHT22;39655;53.210;5.768;2023-08-12T11:40:22;18.60;96.00
53748;DHT22;39655;53.210;5.768;2023-08-12T11:42:50;18.50;95.70
53748;DHT22;39655;53.210;5.768;2023-08-12T11:45:19;18.50;95.50
53748;DHT22;39655;53.210;5.768;2023-08-12T11:47:45;18.60;95.60
53748;DHT22;39655;53.210;5.768;2023-08-12T11:50:21;18.80;95.60
53748;DHT22;39655;53.210;5.768;2023-08-12T11:52:48;18.90;94.90
53748;DHT22;39655;53.210;5.768;2023-08-12T11:55:15;19.10;94.50
53748;DHT22;39655;53.210;5.768;2023-08-12T11:57:41;19.30;93.30
53748;DHT22;39655;53.210;5.768;2023-08-12T12:00:09;19.60;92.30
53748;DHT22;39655;53.210;5.768;2023-08-12T12:02:49;20.00;91.40
53748;DHT22;39655;53.210;5.768;2023-08-12T12:05:16;20.40;90.00
53748;DHT22;39655;53.210;5.768;2023-08-12T12:07:42;20.80;88.70
53748;DHT22;39655;53.210;5.768;2023-08-12T12:10:13;21.60;87.70
53748;DHT22;39655;53.210;5.768;2023-08-12T12:12:40;22.30;85.30
53748;DHT22;39655;53.210;5.768;2023-08-12T12:15:09;22.60;82.50
53748;DHT22;39655;53.210;5.768;2023-08-12T12:17:39;22.90;81.60
53748;DHT22;39655;53.210;5.768;2023-08-12T12:20:07;23.20;80.90
53748;DHT22;39655;53.210;5.768;2023-08-12T12:22:36;23.00;79.60
53748;DHT22;39655;53.210;5.768;2023-08-12T12:25:07;22.70;80.10
53748;DHT22;39655;53.210;5.768;2023-08-12T12:27:34;23.00;80.30
53748;DHT22;39655;53.210;5.768;2023-08-12T12:30:00;23.60;78.30
53748;DHT22;39655;53.210;5.768;2023-08-12T12:32:26;23.70;76.10
53748;DHT22;39655;53.210;5.768;2023-08-12T12:34:52;23.80;75.90
53748;DHT22;39655;53.210;5.768;2023-08-12T12:37:18;23.90;76.00
53748;DHT22;39655;53.210;5.768;2023-08-12T12:39:44;23.70;73.60
53748;DHT22;39655;53.210;5.768;2023-08-12T12:42:10;23.50;74.90
53748;DHT22;39655;53.210;5.768;2023-08-12T12:44:36;23.60;72.90
53748;DHT22;39655;53.210;5.768;2023-08-12T12:47:03;23.60;73.20
53748;DHT22;39655;53.210;5.768;2023-08-12T12:49:28;23.50;74.20
53748;DHT22;39655;53.210;5.768;2023-08-12T12:51:54;23.80;73.60
53748;DHT22;39655;53.210;5.768;2023-08-12T12:54:20;23.90;72.50
53748;DHT22;39655;53.210;5.768;2023-08-12T12:56:45;24.00;71.60
53748;DHT22;39655;53.210;5.768;2023-08-12T12:59:11;24.10;69.90
53748;DHT22;39655;53.210;5.768;2023-08-12T13:01:37;24.30;70.90
53748;DHT22;39655;53.210;5.768;2023-08-12T13:04:03;24.60;68.50
53748;DHT22;39655;53.210;5.768;2023-08-12T13:06:29;24.50;66.80
53748;DHT22;39655;53.210;5.768;2023-08-12T13:08:54;24.80;68.70
53748;DHT22;39655;53.210;5.768;2023-08-12T13:11:20;25.00;65.00
53748;DHT22;39655;53.210;5.768;2023-08-12T13:13:46;25.10;63.70
53748;DHT22;39655;53.210;5.768;2023-08-12T13:16:11;25.10;64.90
53748;DHT22;39655;53.210;5.768;2023-08-12T13:18:37;24.90;65.50
53748;DHT22;39655;53.210;5.768;2023-08-12T13:21:03;25.30;66.20
53748;DHT22;39655;53.210;5.768;2023-08-12T13:23:28;25.80;64.80
53748;DHT22;39655;53.210;5.768;2023-08-12T13:25:54;26.10;61.90
53748;DHT22;39655;53.210;5.768;2023-08-12T13:28:19;25.60;62.80
53748;DHT22;39655;53.210;5.768;2023-08-12T13:30:45;25.30;60.10
53748;DHT22;39655;53.210;5.768;2023-08-12T13:33:11;25.30;61.70
53748;DHT22;39655;53.210;5.768;2023-08-12T13:35:37;25.50;62.30
53748;DHT22;39655;53.210;5.768;2023-08-12T13:38:03;25.30;60.80
53748;DHT22;39655;53.210;5.768;2023-08-12T13:40:29;25.60;63.50
53748;DHT22;39655;53.210;5.768;2023-08-12T13:42:55;26.20;60.30
53748;DHT22;39655;53.210;5.768;2023-08-12T13:45:20;26.50;58.60
53748;DHT22;39655;53.210;5.768;2023-08-12T13:47:46;26.70;56.50
53748;DHT22;39655;53.210;5.768;2023-08-12T13:50:12;26.70;55.40
53748;DHT22;39655;53.210;5.768;2023-08-12T13:52:39;26.30;55.60
53748;DHT22;39655;53.210;5.768;2023-08-12T13:55:05;25.90;56.50
53748;DHT22;39655;53.210;5.768;2023-08-12T13:57:31;26.00;54.70
53748;DHT22;39655;53.210;5.768;2023-08-12T13:59:59;26.10;55.00
53748;DHT22;39655;53.210;5.768;2023-08-12T14:02:25;26.20;52.40
53748;DHT22;39655;53.210;5.768;2023-08-12T14:04:51;26.20;53.40
53748;DHT22;39655;53.210;5.768;2023-08-12T14:07:17;26.40;52.40
53748;DHT22;39655;53.210;5.768;2023-08-12T14:09:45;26.40;54.20
53748;DHT22;39655;53.210;5.768;2023-08-12T14:12:11;26.70;53.70
53748;DHT22;39655;53.210;5.768;2023-08-12T14:14:37;27.10;52.20
53748;DHT22;39655;53.210;5.768;2023-08-12T14:17:03;27.30;52.80
53748;DHT22;39655;53.210;5.768;2023-08-12T14:19:31;27.30;49.50
53748;DHT22;39655;53.210;5.768;2023-08-12T14:21:57;26.80;49.50
53748;DHT22;39655;53.210;5.768;2023-08-12T14:24:22;26.50;51.50
53748;DHT22;39655;53.210;5.768;2023-08-12T14:26:49;26.50;52.10
53748;DHT22;39655;53.210;5.768;2023-08-12T14:29:15;26.80;52.30
53748;DHT22;39655;53.210;5.768;2023-08-12T14:31:46;27.10;51.40
53748;DHT22;39655;53.210;5.768;2023-08-12T14:34:11;27.10;50.90
53748;DHT22;39655;53.210;5.768;2023-08-12T14:36:37;26.90;51.70
53748;DHT22;39655;53.210;5.768;2023-08-12T14:39:03;27.10;52.30
53748;DHT22;39655;53.210;5.768;2023-08-12T14:41:28;27.10;52.70
53748;DHT22;39655;53.210;5.768;2023-08-12T14:43:56;27.10;52.90
53748;DHT22;39655;53.210;5.768;2023-08-12T14:46:22;26.90;52.80
53748;DHT22;39655;53.210;5.768;2023-08-12T14:48:47;26.70;54.10
53748;DHT22;39655;53.210;5.768;2023-08-12T14:51:13;26.80;53.50
53748;DHT22;39655;53.210;5.768;2023-08-12T14:53:39;26.50;54.00
53748;DHT22;39655;53.210;5.768;2023-08-12T14:56:05;26.30;55.70
53748;DHT22;39655;53.210;5.768;2023-08-12T14:58:30;26.30;55.20
53748;DHT22;39655;53.210;5.768;2023-08-12T15:00:56;26.30;55.40
53748;DHT22;39655;53.210;5.768;2023-08-12T15:03:22;26.30;57.00
53748;DHT22;39655;53.210;5.768;2023-08-12T15:05:47;26.70;56.70
53748;DHT22;39655;53.210;5.768;2023-08-12T15:08:13;26.70;54.60
53748;DHT22;39655;53.210;5.768;2023-08-12T15:10:39;26.60;55.40
53748;DHT22;39655;53.210;5.768;2023-08-12T15:13:05;26.90;54.40
53748;DHT22;39655;53.210;5.768;2023-08-12T15:15:31;27.00;54.50
53748;DHT22;39655;53.210;5.768;2023-08-12T15:17:56;26.60;53.90
53748;DHT22;39655;53.210;5.768;2023-08-12T15:20:22;26.60;54.20
53748;DHT22;39655;53.210;5.768;2023-08-12T15:22:47;26.60;54.60
53748;DHT22;39655;53.210;5.768;2023-08-12T15:25:13;26.80;55.00
53748;DHT22;39655;53.210;5.768;2023-08-12T15:27:39;27.00;53.20
53748;DHT22;39655;53.210;5.768;2023-08-12T15:30:05;26.90;54.60
53748;DHT22;39655;53.210;5.768;2023-08-12T15:32:30;26.80;54.50
53748;DHT22;39655;53.210;5.768;2023-08-12T15:34:57;27.00;55.10
53748;DHT22;39655;53.210;5.768;2023-08-12T15:37:23;27.10;54.10
53748;DHT22;39655;53.210;5.768;2023-08-12T15:39:48;26.80;55.30
53748;DHT22;39655;53.210;5.768;2023-08-12T15:42:14;26.70;56.00
53748;DHT22;39655;53.210;5.768;2023-08-12T15:44:40;26.80;56.50
53748;DHT22;39655;53.210;5.768;2023-08-12T15:47:05;26.90;54.60
53748;DHT22;39655;53.210;5.768;2023-08-12T15:49:32;26.80;55.70
53748;DHT22;39655;53.210;5.768;2023-08-12T15:51:58;26.80;54.10
53748;DHT22;39655;53.210;5.768;2023-08-12T15:54:24;26.70;55.10
53748;DHT22;39655;53.210;5.768;2023-08-12T15:56:50;26.60;54.30
53748;DHT22;39655;53.210;5.768;2023-08-12T15:59:16;26.40;56.20
53748;DHT22;39655;53.210;5.768;2023-08-12T16:01:41;26.30;56.40
53748;DHT22;39655;53.210;5.768;2023-08-12T16:04:08;26.40;57.20